createdAt,value
2022-10-13T00:01:37.784Z,96140.00
2022-10-13T00:05:41.990Z,96142.00
2022-10-13T00:09:44.708Z,96128.00
2022-10-13T00:13:49.445Z,96140.00
2022-10-13T00:17:52.202Z,96132.00
2022-10-13T00:21:54.878Z,96132.00
2022-10-13T00:25:57.616Z,96134.00
2022-10-13T00:30:01.721Z,96132.00
2022-10-13T00:34:04.421Z,96133.00
2022-10-13T00:38:07.142Z,96134.00
2022-10-13T00:42:12.933Z,96128.00
2022-10-13T00:46:17.349Z,96131.00
2022-10-13T00:50:24.847Z,96123.00
2022-10-13T00:54:30.692Z,96116.00
2022-10-13T00:58:33.682Z,96115.00
2022-10-13T01:02:38.892Z,96130.00
2022-10-13T01:06:42.139Z,96121.00
2022-10-13T01:10:57.867Z,96117.00
2022-10-13T01:15:05.859Z,96123.00
2022-10-13T01:19:29.895Z,96127.00
2022-10-13T01:23:56.747Z,96129.00
2022-10-13T01:28:19.794Z,96121.00
2022-10-13T01:32:30.868Z,96124.00
2022-10-13T01:36:39.431Z,96130.00
2022-10-13T01:40:47.957Z,96122.00
2022-10-13T01:44:54.446Z,96124.00
2022-10-13T01:48:59.897Z,96130.00
2022-10-13T01:53:05.188Z,96119.00
2022-10-13T01:57:31.779Z,96120.00
2022-10-13T02:01:49.372Z,96117.00
2022-10-13T02:06:05.306Z,96128.00
2022-10-13T02:10:20.991Z,96122.00
2022-10-13T02:14:27.898Z,96132.00
2022-10-13T02:18:34.156Z,96129.00
2022-10-13T02:22:44.596Z,96132.00
2022-10-13T02:26:48.119Z,96135.00
2022-10-13T02:30:55.108Z,96127.00
2022-10-13T02:34:58.129Z,96116.00
2022-10-13T02:39:02.206Z,96127.00
2022-10-13T02:43:05.210Z,96119.00
2022-10-13T02:47:08.008Z,96122.00
2022-10-13T02:51:10.738Z,96122.00
2022-10-13T02:55:14.881Z,96118.00
2022-10-13T02:59:19.426Z,96116.00
2022-10-13T03:03:22.103Z,96111.00
2022-10-13T03:07:25.087Z,96103.00
2022-10-13T03:11:29.378Z,96101.00
2022-10-13T03:15:32.107Z,96104.00
2022-10-13T03:19:35.089Z,96094.00
2022-10-13T03:23:37.819Z,96090.00
2022-10-13T03:27:41.890Z,96098.00
2022-10-13T03:31:44.789Z,96099.00
2022-10-13T03:35:47.458Z,96106.00
2022-10-13T03:39:50.142Z,96109.00
2022-10-13T03:43:54.726Z,96106.00
2022-10-13T03:47:57.420Z,96119.00
2022-10-13T03:52:00.992Z,96114.00
2022-10-13T03:56:04.427Z,96116.00
2022-10-13T04:00:12.630Z,96116.00
2022-10-13T04:04:18.215Z,96121.00
2022-10-13T04:08:25.799Z,96124.00
2022-10-13T04:12:28.498Z,96116.00
2022-10-13T04:16:33.320Z,96118.00
2022-10-13T04:20:39.377Z,96125.00
2022-10-13T04:24:42.202Z,96123.00
2022-10-13T04:28:45.494Z,96122.00
2022-10-13T04:32:49.552Z,96117.00
2022-10-13T04:36:52.990Z,96117.00
2022-10-13T04:40:55.726Z,96123.00
2022-10-13T04:44:59.624Z,96116.00
2022-10-13T04:49:04.731Z,96110.00
2022-10-13T04:53:08.128Z,96114.00
2022-10-13T04:57:10.877Z,96105.00
2022-10-13T05:01:20.481Z,96116.00
2022-10-13T05:05:25.998Z,96102.00
2022-10-13T05:09:29.207Z,96108.00
2022-10-13T05:13:31.949Z,96116.00
2022-10-13T05:17:35.622Z,96105.00
2022-10-13T05:21:45.177Z,96109.00
2022-10-13T05:25:47.923Z,96099.00
2022-10-13T05:29:53.859Z,96105.00
2022-10-13T05:33:57.644Z,96111.00
2022-10-13T05:38:01.838Z,96117.00
2022-10-13T05:42:04.806Z,96119.00
2022-10-13T05:46:08.006Z,96107.00
2022-10-13T05:50:12.096Z,96116.00
2022-10-13T05:54:21.394Z,96106.00
2022-10-13T05:58:24.707Z,96121.00
2022-10-13T06:02:34.790Z,96107.00
2022-10-13T06:06:37.543Z,96106.00
2022-10-13T06:10:42.435Z,96104.00
2022-10-13T06:14:45.334Z,96109.00
2022-10-13T06:18:48.875Z,96115.00
2022-10-13T06:22:51.586Z,96115.00
2022-10-13T06:26:55.633Z,96120.00
2022-10-13T06:30:58.339Z,96118.00
2022-10-13T06:35:01.056Z,96116.00
2022-10-13T06:39:03.970Z,96107.00
2022-10-13T06:43:08.027Z,96104.00
2022-10-13T06:47:17.021Z,96111.00
2022-10-13T06:51:20.283Z,96115.00
2022-10-13T06:55:23.278Z,96122.00
2022-10-13T06:59:27.730Z,96121.00
2022-10-13T07:03:30.525Z,96123.00
2022-10-13T07:07:33.276Z,96115.00
2022-10-13T07:11:36.102Z,96120.00
2022-10-13T07:15:40.685Z,96117.00
2022-10-13T07:19:43.467Z,96108.00
2022-10-13T07:23:46.207Z,96113.00
2022-10-13T07:27:49.164Z,96110.00
2022-10-13T07:31:53.258Z,96125.00
2022-10-13T07:35:56.050Z,96114.00
2022-10-13T07:40:00.326Z,96112.00
2022-10-13T07:44:05.219Z,96109.00
2022-10-13T07:48:09.307Z,96108.00
2022-10-13T07:52:12.086Z,96106.00
2022-10-13T07:56:16.411Z,96095.00
2022-10-13T08:00:19.929Z,96088.00
2022-10-13T08:04:24.075Z,96091.00
2022-10-13T08:08:26.977Z,96095.00
2022-10-13T08:12:29.641Z,96090.00
2022-10-13T08:16:33.692Z,96109.00
2022-10-13T08:20:41.422Z,96108.00
2022-10-13T08:24:46.392Z,96108.00
2022-10-13T08:29:09.562Z,96105.00
2022-10-13T08:33:12.592Z,96105.00
2022-10-13T08:37:18.478Z,96102.00
2022-10-13T08:41:25.174Z,96098.00
2022-10-13T08:45:41.714Z,96106.00
2022-10-13T08:49:46.193Z,96095.00
2022-10-13T08:53:50.913Z,96102.00
2022-10-13T08:57:53.782Z,96097.00
2022-10-13T09:02:02.279Z,96095.00
2022-10-13T09:06:14.256Z,96091.00
2022-10-13T09:10:18.725Z,96091.00
2022-10-13T09:14:24.096Z,96091.00
2022-10-13T09:18:31.739Z,96086.00
2022-10-13T09:22:37.101Z,96081.00
2022-10-13T09:26:41.777Z,96085.00
2022-10-13T09:30:46.869Z,96089.00
2022-10-13T09:34:49.659Z,96075.00
2022-10-13T09:39:08.341Z,96072.00
2022-10-13T09:43:31.395Z,96080.00
2022-10-13T09:47:34.435Z,96078.00
2022-10-13T09:51:39.853Z,96077.00
2022-10-13T09:56:09.334Z,96063.00
2022-10-13T10:00:22.093Z,96067.00
2022-10-13T10:04:30.474Z,96078.00
2022-10-13T10:09:01.429Z,96069.00
2022-10-13T10:13:04.270Z,96065.00
2022-10-13T10:17:22.293Z,96067.00
2022-10-13T10:21:33.895Z,96073.00
2022-10-13T10:25:43.544Z,96077.00
2022-10-13T10:29:51.108Z,96078.00
2022-10-13T10:34:06.691Z,96064.00
2022-10-13T10:38:22.206Z,96058.00
2022-10-13T10:42:55.253Z,96060.00
2022-10-13T10:47:03.395Z,96050.00
2022-10-13T10:51:10.523Z,96051.00
2022-10-13T10:55:21.857Z,96045.00
2022-10-13T10:59:42.455Z,96043.00
2022-10-13T11:03:51.693Z,96038.00
2022-10-13T11:08:01.974Z,96031.00
2022-10-13T11:12:23.043Z,96027.00
2022-10-13T11:16:30.430Z,96021.00
2022-10-13T11:20:59.718Z,96007.00
2022-10-13T11:25:35.817Z,96013.00
2022-10-13T11:29:54.850Z,96013.00
2022-10-13T11:34:00.360Z,96007.00
2022-10-13T11:38:22.653Z,96010.00
2022-10-13T11:42:54.361Z,96010.00
2022-10-13T11:47:08.126Z,96008.00
2022-10-13T11:51:23.199Z,96005.00
2022-10-13T11:55:38.857Z,95988.00
2022-10-13T11:59:48.085Z,95986.00
2022-10-13T12:03:51.339Z,95962.00
2022-10-13T12:07:56.655Z,95971.00
2022-10-13T12:12:02.698Z,95962.00
2022-10-13T12:16:09.185Z,95961.00
2022-10-13T12:20:23.059Z,95970.00
2022-10-13T12:24:28.553Z,95957.00
2022-10-13T12:28:45.731Z,95963.00
2022-10-13T12:32:51.953Z,95955.00
2022-10-13T12:36:59.067Z,95953.00
2022-10-13T12:41:01.858Z,95951.00
2022-10-13T12:45:05.970Z,95955.00
2022-10-13T12:49:15.889Z,95945.00
2022-10-13T12:53:23.110Z,95931.00
2022-10-13T12:57:35.233Z,95933.00
2022-10-13T13:01:38.047Z,95939.00
2022-10-13T13:05:49.213Z,95937.00
2022-10-13T13:10:03.147Z,95936.00
2022-10-13T13:14:35.788Z,95929.00
2022-10-13T13:18:41.703Z,95928.00
2022-10-13T13:22:45.851Z,95929.00
2022-10-13T13:26:48.659Z,95918.00
2022-10-13T13:30:52.712Z,95910.00
2022-10-13T13:34:55.719Z,95915.00
2022-10-13T13:38:59.851Z,95916.00
2022-10-13T13:43:03.037Z,95916.00
2022-10-13T13:47:15.763Z,95918.00
2022-10-13T13:51:21.558Z,95910.00
2022-10-13T13:55:25.902Z,95914.00
2022-10-13T13:59:28.600Z,95910.00
2022-10-13T14:03:32.015Z,95904.00
2022-10-13T14:07:34.760Z,95900.00
2022-10-13T14:11:38.832Z,95893.00
2022-10-13T14:15:41.538Z,95898.00
2022-10-13T14:19:44.365Z,95895.00
2022-10-13T14:23:47.262Z,95898.00
2022-10-13T14:27:51.402Z,95890.00
2022-10-13T14:31:54.120Z,95896.00
2022-10-13T14:36:00.792Z,95885.00
2022-10-13T14:40:03.542Z,95887.00
2022-10-13T14:44:08.221Z,95889.00
2022-10-13T14:48:11.739Z,95885.00
2022-10-13T14:52:14.518Z,95888.00
2022-10-13T14:56:19.834Z,95875.00
2022-10-13T15:00:28.999Z,95876.00
2022-10-13T15:04:31.670Z,95883.00
2022-10-13T15:08:34.439Z,95884.00
2022-10-13T15:12:37.206Z,95874.00
2022-10-13T15:16:41.342Z,95879.00
2022-10-13T15:20:47.382Z,95865.00
2022-10-13T15:24:50.481Z,95870.00
2022-10-13T15:28:54.356Z,95876.00
2022-10-13T15:32:58.812Z,95877.00
2022-10-13T15:37:01.548Z,95879.00
2022-10-13T15:41:05.555Z,95870.00
2022-10-13T15:45:10.707Z,95877.00
2022-10-13T15:49:15.128Z,95875.00
2022-10-13T15:53:17.871Z,95873.00
2022-10-13T15:57:20.531Z,95864.00
2022-10-13T16:01:23.260Z,95868.00
2022-10-13T16:05:27.352Z,95858.00
2022-10-13T16:09:30.283Z,95865.00
2022-10-13T16:13:33.028Z,95863.00
2022-10-13T16:17:37.026Z,95864.00
2022-10-13T16:21:41.424Z,95857.00
2022-10-13T16:25:44.158Z,95868.00
2022-10-13T16:29:46.857Z,95868.00
2022-10-13T16:33:49.844Z,95873.00
2022-10-13T16:37:54.158Z,95868.00
2022-10-13T16:41:56.889Z,95881.00
2022-10-13T16:46:02.708Z,95880.00
2022-10-13T16:50:09.568Z,95888.00
2022-10-13T16:54:13.712Z,95887.00
2022-10-13T16:58:16.595Z,95870.00
2022-10-13T17:02:19.452Z,95889.00
2022-10-13T17:06:25.158Z,95884.00
2022-10-13T17:10:32.064Z,95890.00
2022-10-13T17:14:36.905Z,95883.00
2022-10-13T17:18:39.831Z,95891.00
2022-10-13T17:22:43.357Z,95892.00
2022-10-13T17:26:50.198Z,95893.00
2022-10-13T17:30:59.907Z,95892.00
2022-10-13T17:35:02.821Z,95894.00
2022-10-13T17:39:07.743Z,95884.00
2022-10-13T17:43:13.805Z,95885.00
2022-10-13T17:47:16.708Z,95884.00
2022-10-13T17:51:21.345Z,95888.00
2022-10-13T17:55:24.182Z,95876.00
2022-10-13T17:59:28.347Z,95884.00
2022-10-13T18:03:31.121Z,95876.00
2022-10-13T18:07:34.066Z,95886.00
2022-10-13T18:11:37.157Z,95878.00
2022-10-13T18:15:42.148Z,95878.00
2022-10-13T18:19:44.889Z,95874.00
2022-10-13T18:23:47.798Z,95871.00
2022-10-13T18:27:50.539Z,95858.00
2022-10-13T18:31:56.122Z,95854.00
2022-10-13T18:35:59.100Z,95859.00
2022-10-13T18:40:01.732Z,95866.00
2022-10-13T18:44:05.074Z,95854.00
2022-10-13T18:48:09.190Z,95858.00
2022-10-13T18:52:12.763Z,95857.00
2022-10-13T18:56:18.381Z,95839.00
2022-10-13T19:00:21.432Z,95843.00
2022-10-13T19:04:26.192Z,95850.00
2022-10-13T19:08:30.262Z,95845.00
2022-10-13T19:12:33.008Z,95834.00
2022-10-13T19:16:38.462Z,95829.00
2022-10-13T19:20:42.543Z,95830.00
2022-10-13T19:24:45.288Z,95835.00
2022-10-13T19:28:48.740Z,95842.00
2022-10-13T19:32:51.511Z,95842.00
2022-10-13T19:36:58.983Z,95837.00
2022-10-13T19:41:03.867Z,95839.00
2022-10-13T19:45:07.542Z,95836.00
2022-10-13T19:49:11.318Z,95819.00
2022-10-13T19:53:21.518Z,95822.00
2022-10-13T19:57:24.218Z,95823.00
2022-10-13T20:01:27.656Z,95834.00
2022-10-13T20:05:31.725Z,95839.00
2022-10-13T20:09:35.859Z,95830.00
2022-10-13T20:13:38.721Z,95831.00
2022-10-13T20:17:41.482Z,95829.00
2022-10-13T20:21:44.293Z,95826.00
2022-10-13T20:25:48.318Z,95824.00
2022-10-13T20:29:51.110Z,95827.00
2022-10-13T20:33:55.762Z,95835.00
2022-10-13T20:37:58.744Z,95832.00
2022-10-13T20:42:02.868Z,95829.00
2022-10-13T20:46:07.695Z,95834.00
2022-10-13T20:50:11.169Z,95836.00
2022-10-13T20:54:16.012Z,95831.00
2022-10-13T20:58:20.060Z,95829.00
2022-10-13T21:02:22.831Z,95828.00
2022-10-13T21:06:27.709Z,95825.00
2022-10-13T21:10:32.304Z,95820.00
2022-10-13T21:14:36.363Z,95826.00
2022-10-13T21:18:39.329Z,95816.00
2022-10-13T21:22:42.016Z,95827.00
2022-10-13T21:26:45.800Z,95833.00
2022-10-13T21:31:00.302Z,95827.00
2022-10-13T21:35:03.012Z,95841.00
2022-10-13T21:39:06.750Z,95853.00
2022-10-13T21:43:11.195Z,95857.00
2022-10-13T21:47:15.268Z,95877.00
2022-10-13T21:51:19.969Z,95883.00
2022-10-13T21:55:23.688Z,95886.00
2022-10-13T21:59:26.481Z,95891.00
2022-10-13T22:03:30.600Z,95896.00
2022-10-13T22:07:33.634Z,95910.00
2022-10-13T22:11:38.051Z,95916.00
2022-10-13T22:15:46.563Z,95917.00
2022-10-13T22:19:52.978Z,95908.00
2022-10-13T22:23:57.553Z,95907.00
2022-10-13T22:28:00.282Z,95904.00
2022-10-13T22:32:03.038Z,95913.00
2022-10-13T22:36:13.084Z,95911.00
2022-10-13T22:40:15.820Z,95901.00
2022-10-13T22:44:18.626Z,95894.00
2022-10-13T22:48:21.387Z,95892.00
2022-10-13T22:52:25.533Z,95884.00
2022-10-13T22:56:31.560Z,95883.00
2022-10-13T23:00:35.757Z,95873.00
2022-10-13T23:04:38.717Z,95874.00
2022-10-13T23:08:43.046Z,95860.00
2022-10-13T23:12:45.727Z,95860.00
2022-10-13T23:16:48.430Z,95854.00
2022-10-13T23:20:55.810Z,95851.00
2022-10-13T23:25:03.059Z,95849.00
2022-10-13T23:29:06.383Z,95845.00
2022-10-13T23:33:09.142Z,95845.00
2022-10-13T23:37:13.857Z,95841.00
2022-10-13T23:41:17.950Z,95841.00
2022-10-13T23:45:20.638Z,95839.00
2022-10-13T23:49:23.344Z,95845.00
2022-10-13T23:53:26.059Z,95843.00
2022-10-13T23:57:31.410Z,95831.00
